Los Lunas PMC

April 5, 2020, 10 a.m.

  • imperial
Air Temperature RH Wind Speed Wind Direction Precipitation Solar Radiation Soil Temperature
Date Time Max Min Mean Max Min Max Mean Mean Total Total
US/Mountain F F F % % MPH MPH deg. in. MJ/m^2 F
2020-04-04 10:00 53.6 49.64 50.54 43.0 38.0 7.9 3.31 12.0 0.0 1.798 54.68
2020-04-04 11:00 57.38 53.6 54.86 38.0 33.0 7.61 2.3 33.0 0.0 2.42 55.04
2020-04-04 12:00 61.52 57.02 59.0 33.0 30.0 7.49 2.3 176.0 0.0 2.923 55.94
2020-04-04 13:00 66.2 60.44 62.42 31.0 24.0 6.4 2.39 153.0 0.0 3.208 57.2
2020-04-04 14:00 68.18 64.4 66.2 26.0 20.0 10.4 3.6 153.0 0.0 3.244 59.72
2020-04-04 15:00 70.16 67.28 68.72 20.0 18.0 15.99 5.01 170.0 0.0 3.06 61.16
2020-04-04 16:00 72.32 69.44 70.34 18.0 16.0 14.9 6.11 179.0 0.0 2.666 -147.82
2020-04-04 17:00 72.86 70.7 72.32 16.0 14.0 12.5 6.2 178.0 0.0 1.757 63.86
2020-04-04 18:00 72.32 70.16 71.06 15.0 13.0 10.4 4.0 173.0 0.0 0.348 64.22
2020-04-04 19:00 71.96 69.8 70.7 14.0 14.0 12.91 5.59 180.0 0.0 0.217 -147.82
2020-04-04 20:00 69.8 67.82 69.26 14.0 13.0 13.0 6.71 176.0 0.0 0.023 63.5
2020-04-04 21:00 67.82 65.84 67.1 14.0 14.0 10.8 5.7 175.0 0.0 0.0 62.96
2020-04-04 22:00 65.84 64.04 64.94 16.0 14.0 11.9 5.01 209.0 0.0 0.0 62.06
2020-04-04 23:00 64.04 60.8 62.78 18.0 16.0 11.5 6.89 272.0 0.0 0.0 61.34
2020-04-05 00:00 60.8 56.66 59.9 20.0 17.0 9.1 4.7 274.0 0.0 0.0 60.44
2020-04-05 01:00 56.66 48.56 53.42 29.0 20.0 3.2 1.01 218.0 0.0 0.0 59.9
2020-04-05 02:00 48.56 43.88 46.22 37.0 29.0 2.39 0.29 317.0 0.0 0.0 59.36
2020-04-05 03:00 43.88 38.66 42.44 46.0 37.0 3.11 0.29 2.0 0.0 0.0 58.28
2020-04-05 04:00 39.38 36.68 38.48 51.0 46.0 2.71 0.4 196.0 0.0 0.0 57.74
2020-04-05 05:00 37.58 35.78 36.86 52.0 48.0 3.6 0.49 217.0 0.0 0.0 56.66
2020-04-05 06:00 37.04 34.34 35.42 57.0 50.0 4.7 0.6 194.0 0.0 0.0 55.94
2020-04-05 07:00 34.52 32.9 33.62 60.0 55.0 4.41 0.69 205.0 0.0 0.008 55.58
2020-04-05 08:00 44.78 32.9 35.96 60.0 40.0 4.09 0.81 177.0 0.0 0.365 54.86
2020-04-05 09:00 51.44 44.78 46.58 44.0 35.0 4.7 2.1 102.0 0.0 0.94 54.32
2020-04-05 10:00 60.8 51.44 54.14 35.0 22.0 4.0 1.3 45.0 0.0 1.785 54.14

Data is presented as is, with no certification of correctness. DO NOT USE IN LEGAL PROCEEDINGS.